sensor_id;sensor_type;location;lat;lon;timestamp;P1;durP1;ratioP1;P2;durP2;ratioP2
58101;SDS011;52034;51.926;6.320;2023-04-16T00:00:26;69.43;;;26.00;;
58101;SDS011;52034;51.926;6.320;2023-04-16T00:01:27;55.70;;;23.80;;
58101;SDS011;52034;51.926;6.320;2023-04-16T00:02:27;60.87;;;25.57;;
58101;SDS011;52034;51.926;6.320;2023-04-16T00:03:28;70.90;;;26.57;;
58101;SDS011;52034;51.926;6.320;2023-04-16T00:04:28;65.67;;;27.60;;
58101;SDS011;52034;51.926;6.320;2023-04-16T00:05:29;64.77;;;26.67;;
58101;SDS011;52034;51.926;6.320;2023-04-16T00:06:29;62.60;;;26.47;;
58101;SDS011;52034;51.926;6.320;2023-04-16T00:07:30;63.40;;;25.85;;
58101;SDS011;52034;51.926;6.320;2023-04-16T00:08:31;68.60;;;28.77;;
58101;SDS011;52034;51.926;6.320;2023-04-16T00:09:31;60.23;;;25.97;;
58101;SDS011;52034;51.926;6.320;2023-04-16T00:10:35;56.97;;;24.70;;
58101;SDS011;52034;51.926;6.320;2023-04-16T00:11:35;65.13;;;26.45;;
58101;SDS011;52034;51.926;6.320;2023-04-16T00:12:35;62.67;;;25.10;;
58101;SDS011;52034;51.926;6.320;2023-04-16T00:13:36;65.63;;;26.10;;
58101;SDS011;52034;51.926;6.320;2023-04-16T00:14:36;64.20;;;25.73;;
58101;SDS011;52034;51.926;6.320;2023-04-16T00:15:37;71.00;;;26.97;;
58101;SDS011;52034;51.926;6.320;2023-04-16T00:16:37;64.40;;;26.83;;
58101;SDS011;52034;51.926;6.320;2023-04-16T00:17:38;66.30;;;28.17;;
58101;SDS011;52034;51.926;6.320;2023-04-16T00:18:38;67.80;;;25.97;;
58101;SDS011;52034;51.926;6.320;2023-04-16T00:19:38;81.37;;;29.00;;
58101;SDS011;52034;51.926;6.320;2023-04-16T00:20:39;64.27;;;26.37;;
58101;SDS011;52034;51.926;6.320;2023-04-16T00:21:39;55.87;;;26.00;;
58101;SDS011;52034;51.926;6.320;2023-04-16T00:22:40;74.33;;;27.57;;
58101;SDS011;52034;51.926;6.320;2023-04-16T00:23:40;77.50;;;29.60;;
58101;SDS011;52034;51.926;6.320;2023-04-16T00:24:41;81.23;;;29.47;;
58101;SDS011;52034;51.926;6.320;2023-04-16T00:25:41;78.33;;;30.43;;
58101;SDS011;52034;51.926;6.320;2023-04-16T00:26:42;63.28;;;25.60;;
58101;SDS011;52034;51.926;6.320;2023-04-16T00:27:44;58.95;;;25.33;;
58101;SDS011;52034;51.926;6.320;2023-04-16T00:28:45;66.60;;;27.13;;
58101;SDS011;52034;51.926;6.320;2023-04-16T00:29:45;73.03;;;28.03;;
58101;SDS011;52034;51.926;6.320;2023-04-16T00:30:46;69.73;;;27.57;;
58101;SDS011;52034;51.926;6.320;2023-04-16T00:31:46;70.33;;;27.30;;
58101;SDS011;52034;51.926;6.320;2023-04-16T00:32:47;82.63;;;28.67;;
58101;SDS011;52034;51.926;6.320;2023-04-16T00:33:47;77.73;;;29.13;;
58101;SDS011;52034;51.926;6.320;2023-04-16T00:34:47;69.57;;;27.50;;
58101;SDS011;52034;51.926;6.320;2023-04-16T00:35:48;74.23;;;27.53;;
58101;SDS011;52034;51.926;6.320;2023-04-16T00:36:48;75.40;;;28.67;;
58101;SDS011;52034;51.926;6.320;2023-04-16T00:37:49;59.33;;;25.37;;
58101;SDS011;52034;51.926;6.320;2023-04-16T00:38:49;70.93;;;26.73;;
58101;SDS011;52034;51.926;6.320;2023-04-16T00:39:50;63.38;;;25.08;;
58101;SDS011;52034;51.926;6.320;2023-04-16T00:40:50;78.73;;;30.30;;
58101;SDS011;52034;51.926;6.320;2023-04-16T00:41:51;67.27;;;27.67;;
58101;SDS011;52034;51.926;6.320;2023-04-16T00:42:51;87.47;;;31.60;;
58101;SDS011;52034;51.926;6.320;2023-04-16T00:43:52;65.27;;;25.97;;
58101;SDS011;52034;51.926;6.320;2023-04-16T00:44:52;81.70;;;29.27;;
58101;SDS011;52034;51.926;6.320;2023-04-16T00:45:54;79.73;;;29.80;;
58101;SDS011;52034;51.926;6.320;2023-04-16T00:46:56;81.72;;;31.08;;
58101;SDS011;52034;51.926;6.320;2023-04-16T00:47:57;73.80;;;27.85;;
58101;SDS011;52034;51.926;6.320;2023-04-16T00:48:58;81.60;;;28.73;;
58101;SDS011;52034;51.926;6.320;2023-04-16T00:50:00;68.57;;;28.98;;
58101;SDS011;52034;51.926;6.320;2023-04-16T00:51:04;80.07;;;29.95;;
58101;SDS011;52034;51.926;6.320;2023-04-16T00:52:05;93.75;;;33.65;;
58101;SDS011;52034;51.926;6.320;2023-04-16T00:53:05;87.93;;;31.23;;
58101;SDS011;52034;51.926;6.320;2023-04-16T00:54:06;74.83;;;26.23;;
58101;SDS011;52034;51.926;6.320;2023-04-16T00:55:06;65.73;;;26.73;;
58101;SDS011;52034;51.926;6.320;2023-04-16T00:56:12;66.85;;;26.02;;
58101;SDS011;52034;51.926;6.320;2023-04-16T00:57:13;92.13;;;33.23;;
58101;SDS011;52034;51.926;6.320;2023-04-16T00:58:13;66.87;;;27.27;;
58101;SDS011;52034;51.926;6.320;2023-04-16T00:59:15;80.32;;;30.75;;
58101;SDS011;52034;51.926;6.320;2023-04-16T01:00:15;77.73;;;30.57;;
58101;SDS011;52034;51.926;6.320;2023-04-16T01:01:16;78.33;;;28.87;;
58101;SDS011;52034;51.926;6.320;2023-04-16T01:02:16;70.10;;;27.50;;
58101;SDS011;52034;51.926;6.320;2023-04-16T01:03:16;97.27;;;32.97;;
58101;SDS011;52034;51.926;6.320;2023-04-16T01:04:17;77.17;;;30.87;;
58101;SDS011;52034;51.926;6.320;2023-04-16T01:05:17;98.60;;;32.43;;
58101;SDS011;52034;51.926;6.320;2023-04-16T01:06:18;84.10;;;32.77;;
58101;SDS011;52034;51.926;6.320;2023-04-16T01:07:18;72.87;;;30.07;;
58101;SDS011;52034;51.926;6.320;2023-04-16T01:08:19;104.57;;;34.13;;
58101;SDS011;52034;51.926;6.320;2023-04-16T01:09:20;106.70;;;34.78;;
58101;SDS011;52034;51.926;6.320;2023-04-16T01:10:21;109.53;;;33.93;;
58101;SDS011;52034;51.926;6.320;2023-04-16T01:11:21;96.23;;;33.97;;
58101;SDS011;52034;51.926;6.320;2023-04-16T01:12:22;126.87;;;38.93;;
58101;SDS011;52034;51.926;6.320;2023-04-16T01:13:22;83.80;;;30.50;;
58101;SDS011;52034;51.926;6.320;2023-04-16T01:14:22;107.73;;;34.70;;
58101;SDS011;52034;51.926;6.320;2023-04-16T01:15:23;85.37;;;31.80;;
58101;SDS011;52034;51.926;6.320;2023-04-16T01:16:23;88.33;;;31.33;;
58101;SDS011;52034;51.926;6.320;2023-04-16T01:17:25;121.05;;;36.70;;
58101;SDS011;52034;51.926;6.320;2023-04-16T01:18:25;109.40;;;34.07;;
58101;SDS011;52034;51.926;6.320;2023-04-16T01:19:26;117.10;;;35.10;;
58101;SDS011;52034;51.926;6.320;2023-04-16T01:20:26;123.30;;;36.50;;
58101;SDS011;52034;51.926;6.320;2023-04-16T01:21:27;97.77;;;33.20;;
58101;SDS011;52034;51.926;6.320;2023-04-16T01:22:27;146.93;;;41.77;;
58101;SDS011;52034;51.926;6.320;2023-04-16T01:23:28;108.57;;;36.43;;
58101;SDS011;52034;51.926;6.320;2023-04-16T01:24:29;84.83;;;32.87;;
58101;SDS011;52034;51.926;6.320;2023-04-16T01:25:30;116.55;;;37.05;;
58101;SDS011;52034;51.926;6.320;2023-04-16T01:26:30;114.30;;;35.60;;
58101;SDS011;52034;51.926;6.320;2023-04-16T01:27:31;107.43;;;35.30;;
58101;SDS011;52034;51.926;6.320;2023-04-16T01:28:31;141.40;;;39.53;;
58101;SDS011;52034;51.926;6.320;2023-04-16T01:29:32;156.00;;;41.67;;
58101;SDS011;52034;51.926;6.320;2023-04-16T01:30:33;157.93;;;41.97;;
58101;SDS011;52034;51.926;6.320;2023-04-16T01:31:44;148.18;;;40.45;;
58101;SDS011;52034;51.926;6.320;2023-04-16T01:33:14;90.35;;;32.45;;
58101;SDS011;52034;51.926;6.320;2023-04-16T01:34:17;114.50;;;36.25;;
58101;SDS011;52034;51.926;6.320;2023-04-16T01:35:18;104.38;;;34.92;;
58101;SDS011;52034;51.926;6.320;2023-04-16T01:36:18;115.17;;;37.07;;
58101;SDS011;52034;51.926;6.320;2023-04-16T01:37:19;109.10;;;35.80;;
58101;SDS011;52034;51.926;6.320;2023-04-16T01:38:19;133.60;;;39.53;;
58101;SDS011;52034;51.926;6.320;2023-04-16T01:39:20;86.77;;;32.50;;
58101;SDS011;52034;51.926;6.320;2023-04-16T01:40:21;109.38;;;36.53;;
58101;SDS011;52034;51.926;6.320;2023-04-16T01:41:21;80.83;;;30.03;;
58101;SDS011;52034;51.926;6.320;2023-04-16T01:42:22;109.00;;;35.50;;
58101;SDS011;52034;51.926;6.320;2023-04-16T01:44:24;102.45;;;36.03;;
58101;SDS011;52034;51.926;6.320;2023-04-16T01:45:24;93.93;;;31.27;;
58101;SDS011;52034;51.926;6.320;2023-04-16T01:46:28;120.43;;;38.67;;
58101;SDS011;52034;51.926;6.320;2023-04-16T01:47:31;95.28;;;34.30;;
58101;SDS011;52034;51.926;6.320;2023-04-16T01:48:31;99.77;;;32.10;;
58101;SDS011;52034;51.926;6.320;2023-04-16T01:49:33;103.90;;;34.03;;
58101;SDS011;52034;51.926;6.320;2023-04-16T01:50:34;102.60;;;35.47;;
58101;SDS011;52034;51.926;6.320;2023-04-16T01:51:34;116.20;;;36.87;;
58101;SDS011;52034;51.926;6.320;2023-04-16T01:52:34;127.33;;;39.37;;
58101;SDS011;52034;51.926;6.320;2023-04-16T01:53:36;96.13;;;33.90;;
58101;SDS011;52034;51.926;6.320;2023-04-16T01:54:36;83.90;;;32.83;;
58101;SDS011;52034;51.926;6.320;2023-04-16T01:55:36;80.87;;;32.43;;
58101;SDS011;52034;51.926;6.320;2023-04-16T01:56:37;124.23;;;38.17;;
58101;SDS011;52034;51.926;6.320;2023-04-16T01:57:37;96.37;;;33.60;;
58101;SDS011;52034;51.926;6.320;2023-04-16T01:58:38;89.30;;;31.70;;
58101;SDS011;52034;51.926;6.320;2023-04-16T01:59:40;89.43;;;34.67;;
58101;SDS011;52034;51.926;6.320;2023-04-16T02:00:41;105.00;;;35.30;;
58101;SDS011;52034;51.926;6.320;2023-04-16T02:01:41;92.73;;;34.97;;
58101;SDS011;52034;51.926;6.320;2023-04-16T02:02:42;146.23;;;41.03;;
58101;SDS011;52034;51.926;6.320;2023-04-16T02:03:42;132.20;;;40.63;;
58101;SDS011;52034;51.926;6.320;2023-04-16T02:04:43;107.83;;;36.20;;
58101;SDS011;52034;51.926;6.320;2023-04-16T02:05:44;131.95;;;41.95;;
58101;SDS011;52034;51.926;6.320;2023-04-16T02:06:45;107.07;;;37.97;;
58101;SDS011;52034;51.926;6.320;2023-04-16T02:07:47;114.43;;;37.45;;
58101;SDS011;52034;51.926;6.320;2023-04-16T02:08:47;106.83;;;34.97;;
58101;SDS011;52034;51.926;6.320;2023-04-16T02:09:48;78.83;;;30.93;;
58101;SDS011;52034;51.926;6.320;2023-04-16T02:10:52;104.32;;;36.00;;
58101;SDS011;52034;51.926;6.320;2023-04-16T02:11:52;109.10;;;36.87;;
58101;SDS011;52034;51.926;6.320;2023-04-16T02:12:53;107.83;;;36.90;;
58101;SDS011;52034;51.926;6.320;2023-04-16T02:13:53;83.77;;;31.90;;
58101;SDS011;52034;51.926;6.320;2023-04-16T02:14:54;86.07;;;34.40;;
58101;SDS011;52034;51.926;6.320;2023-04-16T02:15:56;89.50;;;34.00;;
58101;SDS011;52034;51.926;6.320;2023-04-16T02:17:22;73.22;;;30.27;;
58101;SDS011;52034;51.926;6.320;2023-04-16T02:19:25;75.45;;;30.33;;
58101;SDS011;52034;51.926;6.320;2023-04-16T02:20:26;93.32;;;34.53;;
58101;SDS011;52034;51.926;6.320;2023-04-16T02:21:30;116.78;;;39.22;;
58101;SDS011;52034;51.926;6.320;2023-04-16T02:22:31;80.90;;;31.80;;
58101;SDS011;52034;51.926;6.320;2023-04-16T02:23:31;90.17;;;33.50;;
58101;SDS011;52034;51.926;6.320;2023-04-16T02:24:32;81.93;;;33.10;;
58101;SDS011;52034;51.926;6.320;2023-04-16T02:25:38;79.28;;;31.77;;
58101;SDS011;52034;51.926;6.320;2023-04-16T02:26:40;79.32;;;30.80;;
58101;SDS011;52034;51.926;6.320;2023-04-16T02:27:46;83.68;;;32.88;;
58101;SDS011;52034;51.926;6.320;2023-04-16T02:29:00;107.20;;;36.55;;
58101;SDS011;52034;51.926;6.320;2023-04-16T02:30:08;79.47;;;30.17;;
58101;SDS011;52034;51.926;6.320;2023-04-16T02:31:09;78.93;;;32.42;;
58101;SDS011;52034;51.926;6.320;2023-04-16T02:32:14;81.78;;;32.58;;
58101;SDS011;52034;51.926;6.320;2023-04-16T02:33:18;84.32;;;32.25;;
58101;SDS011;52034;51.926;6.320;2023-04-16T02:34:28;87.88;;;33.42;;
58101;SDS011;52034;51.926;6.320;2023-04-16T02:35:28;77.63;;;32.13;;
58101;SDS011;52034;51.926;6.320;2023-04-16T02:36:29;97.77;;;34.47;;
58101;SDS011;52034;51.926;6.320;2023-04-16T02:37:31;77.20;;;32.25;;
58101;SDS011;52034;51.926;6.320;2023-04-16T02:38:31;85.20;;;33.60;;
58101;SDS011;52034;51.926;6.320;2023-04-16T02:39:32;70.07;;;30.10;;
58101;SDS011;52034;51.926;6.320;2023-04-16T02:40:32;71.00;;;31.13;;
58101;SDS011;52034;51.926;6.320;2023-04-16T02:41:33;97.07;;;35.70;;
58101;SDS011;52034;51.926;6.320;2023-04-16T02:42:33;88.53;;;34.63;;
58101;SDS011;52034;51.926;6.320;2023-04-16T02:43:33;77.30;;;30.37;;
58101;SDS011;52034;51.926;6.320;2023-04-16T02:44:35;92.45;;;34.67;;
58101;SDS011;52034;51.926;6.320;2023-04-16T02:45:35;81.40;;;32.60;;
58101;SDS011;52034;51.926;6.320;2023-04-16T02:46:35;82.60;;;32.77;;
58101;SDS011;52034;51.926;6.320;2023-04-16T02:47:36;87.37;;;33.67;;
58101;SDS011;52034;51.926;6.320;2023-04-16T02:48:36;79.60;;;32.50;;
58101;SDS011;52034;51.926;6.320;2023-04-16T02:49:36;79.60;;;32.90;;
58101;SDS011;52034;51.926;6.320;2023-04-16T02:50:37;74.37;;;32.00;;
58101;SDS011;52034;51.926;6.320;2023-04-16T02:51:37;64.23;;;30.17;;
58101;SDS011;52034;51.926;6.320;2023-04-16T02:52:37;66.10;;;29.20;;
58101;SDS011;52034;51.926;6.320;2023-04-16T02:53:38;90.97;;;34.97;;
58101;SDS011;52034;51.926;6.320;2023-04-16T02:54:38;100.63;;;36.03;;
58101;SDS011;52034;51.926;6.320;2023-04-16T02:55:38;88.70;;;33.60;;
58101;SDS011;52034;51.926;6.320;2023-04-16T02:56:39;71.43;;;30.93;;
58101;SDS011;52034;51.926;6.320;2023-04-16T02:57:39;74.40;;;33.03;;
58101;SDS011;52034;51.926;6.320;2023-04-16T02:59:41;86.00;;;33.80;;
58101;SDS011;52034;51.926;6.320;2023-04-16T03:00:41;70.80;;;31.67;;
58101;SDS011;52034;51.926;6.320;2023-04-16T03:01:42;67.23;;;30.10;;
58101;SDS011;52034;51.926;6.320;2023-04-16T03:02:42;90.23;;;35.17;;
58101;SDS011;52034;51.926;6.320;2023-04-16T03:03:43;71.10;;;32.53;;
58101;SDS011;52034;51.926;6.320;2023-04-16T03:04:43;95.07;;;36.37;;
58101;SDS011;52034;51.926;6.320;2023-04-16T03:05:43;98.33;;;37.57;;
58101;SDS011;52034;51.926;6.320;2023-04-16T03:06:44;84.80;;;35.20;;
58101;SDS011;52034;51.926;6.320;2023-04-16T03:07:44;98.13;;;38.50;;
58101;SDS011;52034;51.926;6.320;2023-04-16T03:08:45;92.00;;;36.43;;
58101;SDS011;52034;51.926;6.320;2023-04-16T03:09:45;82.17;;;34.07;;
58101;SDS011;52034;51.926;6.320;2023-04-16T03:10:45;82.50;;;34.30;;
58101;SDS011;52034;51.926;6.320;2023-04-16T03:12:47;86.15;;;34.88;;
58101;SDS011;52034;51.926;6.320;2023-04-16T03:13:48;86.30;;;34.83;;
58101;SDS011;52034;51.926;6.320;2023-04-16T03:14:49;85.90;;;34.83;;
58101;SDS011;52034;51.926;6.320;2023-04-16T03:15:51;105.15;;;37.90;;
58101;SDS011;52034;51.926;6.320;2023-04-16T03:16:51;88.93;;;35.53;;
58101;SDS011;52034;51.926;6.320;2023-04-16T03:17:52;93.85;;;37.22;;
58101;SDS011;52034;51.926;6.320;2023-04-16T03:18:53;141.13;;;46.27;;
58101;SDS011;52034;51.926;6.320;2023-04-16T03:19:53;81.03;;;35.13;;
58101;SDS011;52034;51.926;6.320;2023-04-16T03:20:54;95.97;;;36.83;;
58101;SDS011;52034;51.926;6.320;2023-04-16T03:21:54;109.83;;;40.60;;
58101;SDS011;52034;51.926;6.320;2023-04-16T03:22:55;103.82;;;39.42;;
58101;SDS011;52034;51.926;6.320;2023-04-16T03:23:56;101.00;;;37.67;;
58101;SDS011;52034;51.926;6.320;2023-04-16T03:24:56;108.90;;;39.83;;
58101;SDS011;52034;51.926;6.320;2023-04-16T03:25:57;108.10;;;39.17;;
58101;SDS011;52034;51.926;6.320;2023-04-16T03:26:58;144.57;;;44.70;;
58101;SDS011;52034;51.926;6.320;2023-04-16T03:27:58;97.30;;;37.87;;
58101;SDS011;52034;51.926;6.320;2023-04-16T03:28:58;114.13;;;40.37;;
58101;SDS011;52034;51.926;6.320;2023-04-16T03:30:02;113.38;;;40.33;;
58101;SDS011;52034;51.926;6.320;2023-04-16T03:31:05;146.95;;;46.40;;
58101;SDS011;52034;51.926;6.320;2023-04-16T03:32:05;124.00;;;40.60;;
58101;SDS011;52034;51.926;6.320;2023-04-16T03:33:06;119.90;;;41.10;;
58101;SDS011;52034;51.926;6.320;2023-04-16T03:34:06;93.80;;;37.70;;
58101;SDS011;52034;51.926;6.320;2023-04-16T03:35:08;115.60;;;40.05;;
58101;SDS011;52034;51.926;6.320;2023-04-16T03:36:08;127.30;;;42.15;;
58101;SDS011;52034;51.926;6.320;2023-04-16T03:37:09;159.30;;;47.60;;
58101;SDS011;52034;51.926;6.320;2023-04-16T03:38:11;103.70;;;38.25;;
58101;SDS011;52034;51.926;6.320;2023-04-16T03:39:12;133.82;;;41.03;;
58101;SDS011;52034;51.926;6.320;2023-04-16T03:40:12;104.23;;;38.33;;
58101;SDS011;52034;51.926;6.320;2023-04-16T03:41:13;149.77;;;46.17;;
58101;SDS011;52034;51.926;6.320;2023-04-16T03:42:13;127.60;;;41.33;;
58101;SDS011;52034;51.926;6.320;2023-04-16T03:43:14;114.38;;;42.00;;
58101;SDS011;52034;51.926;6.320;2023-04-16T03:44:15;118.82;;;40.50;;
58101;SDS011;52034;51.926;6.320;2023-04-16T03:45:16;131.57;;;44.57;;
58101;SDS011;52034;51.926;6.320;2023-04-16T03:46:17;154.80;;;48.42;;
58101;SDS011;52034;51.926;6.320;2023-04-16T03:47:17;141.50;;;45.30;;
58101;SDS011;52034;51.926;6.320;2023-04-16T03:48:18;121.10;;;42.17;;
58101;SDS011;52034;51.926;6.320;2023-04-16T03:49:19;148.80;;;47.07;;
58101;SDS011;52034;51.926;6.320;2023-04-16T03:50:19;162.30;;;49.53;;
58101;SDS011;52034;51.926;6.320;2023-04-16T03:51:20;130.00;;;43.13;;
58101;SDS011;52034;51.926;6.320;2023-04-16T03:52:20;118.17;;;42.47;;
58101;SDS011;52034;51.926;6.320;2023-04-16T03:53:21;123.27;;;41.70;;
58101;SDS011;52034;51.926;6.320;2023-04-16T03:54:22;153.07;;;46.72;;
58101;SDS011;52034;51.926;6.320;2023-04-16T03:55:27;146.82;;;45.63;;
58101;SDS011;52034;51.926;6.320;2023-04-16T03:56:28;107.73;;;41.33;;
58101;SDS011;52034;51.926;6.320;2023-04-16T03:57:29;133.60;;;44.88;;
58101;SDS011;52034;51.926;6.320;2023-04-16T03:58:34;130.35;;;42.60;;
58101;SDS011;52034;51.926;6.320;2023-04-16T03:59:35;118.17;;;43.30;;
58101;SDS011;52034;51.926;6.320;2023-04-16T04:00:35;134.27;;;44.80;;
58101;SDS011;52034;51.926;6.320;2023-04-16T04:01:44;173.15;;;49.83;;
58101;SDS011;52034;51.926;6.320;2023-04-16T04:02:44;150.00;;;46.57;;
58101;SDS011;52034;51.926;6.320;2023-04-16T04:03:51;173.02;;;49.97;;
58101;SDS011;52034;51.926;6.320;2023-04-16T04:04:51;136.77;;;44.60;;
58101;SDS011;52034;51.926;6.320;2023-04-16T04:05:51;220.17;;;56.83;;
58101;SDS011;52034;51.926;6.320;2023-04-16T04:06:58;143.73;;;45.80;;
58101;SDS011;52034;51.926;6.320;2023-04-16T04:09:01;134.73;;;43.95;;
58101;SDS011;52034;51.926;6.320;2023-04-16T04:10:02;145.18;;;45.10;;
58101;SDS011;52034;51.926;6.320;2023-04-16T04:11:05;173.80;;;47.40;;
58101;SDS011;52034;51.926;6.320;2023-04-16T04:12:07;148.32;;;48.97;;
58101;SDS011;52034;51.926;6.320;2023-04-16T04:13:09;191.68;;;53.28;;
58101;SDS011;52034;51.926;6.320;2023-04-16T04:14:09;168.37;;;49.87;;
58101;SDS011;52034;51.926;6.320;2023-04-16T04:15:10;137.67;;;46.17;;
58101;SDS011;52034;51.926;6.320;2023-04-16T04:16:10;125.68;;;43.55;;
58101;SDS011;52034;51.926;6.320;2023-04-16T04:17:11;165.40;;;50.70;;
58101;SDS011;52034;51.926;6.320;2023-04-16T04:18:11;112.23;;;43.13;;
58101;SDS011;52034;51.926;6.320;2023-04-16T04:19:11;135.30;;;46.70;;
58101;SDS011;52034;51.926;6.320;2023-04-16T04:20:12;126.27;;;43.00;;
58101;SDS011;52034;51.926;6.320;2023-04-16T04:21:12;137.70;;;45.67;;
58101;SDS011;52034;51.926;6.320;2023-04-16T04:22:13;149.80;;;47.20;;
58101;SDS011;52034;51.926;6.320;2023-04-16T04:23:13;155.90;;;49.60;;
58101;SDS011;52034;51.926;6.320;2023-04-16T04:24:14;127.67;;;45.70;;
58101;SDS011;52034;51.926;6.320;2023-04-16T04:25:15;130.73;;;45.93;;
58101;SDS011;52034;51.926;6.320;2023-04-16T04:27:16;156.13;;;48.47;;
58101;SDS011;52034;51.926;6.320;2023-04-16T04:28:16;140.60;;;47.23;;
58101;SDS011;52034;51.926;6.320;2023-04-16T04:29:17;136.87;;;46.07;;
58101;SDS011;52034;51.926;6.320;2023-04-16T04:30:17;126.67;;;44.80;;
58101;SDS011;52034;51.926;6.320;2023-04-16T04:31:18;168.93;;;49.93;;
58101;SDS011;52034;51.926;6.320;2023-04-16T04:32:18;198.40;;;56.03;;
58101;SDS011;52034;51.926;6.320;2023-04-16T04:33:20;137.07;;;46.60;;
58101;SDS011;52034;51.926;6.320;2023-04-16T04:34:21;208.95;;;56.45;;
58101;SDS011;52034;51.926;6.320;2023-04-16T04:35:21;124.10;;;44.20;;
58101;SDS011;52034;51.926;6.320;2023-04-16T04:36:22;134.40;;;44.83;;
58101;SDS011;52034;51.926;6.320;2023-04-16T04:37:23;134.07;;;46.00;;
58101;SDS011;52034;51.926;6.320;2023-04-16T04:38:23;120.03;;;43.90;;
58101;SDS011;52034;51.926;6.320;2023-04-16T04:39:24;153.68;;;48.70;;
58101;SDS011;52034;51.926;6.320;2023-04-16T04:40:25;129.03;;;45.73;;
58101;SDS011;52034;51.926;6.320;2023-04-16T04:41:26;149.93;;;47.85;;
58101;SDS011;52034;51.926;6.320;2023-04-16T04:42:26;181.87;;;51.20;;
58101;SDS011;52034;51.926;6.320;2023-04-16T04:43:28;166.13;;;50.25;;
58101;SDS011;52034;51.926;6.320;2023-04-16T04:44:28;135.20;;;45.27;;
58101;SDS011;52034;51.926;6.320;2023-04-16T04:45:28;129.27;;;44.63;;
58101;SDS011;52034;51.926;6.320;2023-04-16T04:46:29;143.33;;;48.50;;
58101;SDS011;52034;51.926;6.320;2023-04-16T04:47:29;95.37;;;40.07;;
58101;SDS011;52034;51.926;6.320;2023-04-16T04:48:29;117.43;;;44.03;;
58101;SDS011;52034;51.926;6.320;2023-04-16T04:49:30;106.90;;;42.73;;
58101;SDS011;52034;51.926;6.320;2023-04-16T04:50:30;106.23;;;42.07;;
58101;SDS011;52034;51.926;6.320;2023-04-16T04:51:31;117.07;;;43.07;;
58101;SDS011;52034;51.926;6.320;2023-04-16T04:52:32;110.53;;;43.77;;
58101;SDS011;52034;51.926;6.320;2023-04-16T04:53:32;121.03;;;44.37;;
58101;SDS011;52034;51.926;6.320;2023-04-16T04:54:32;109.53;;;42.07;;
58101;SDS011;52034;51.926;6.320;2023-04-16T04:55:33;119.57;;;44.63;;
58101;SDS011;52034;51.926;6.320;2023-04-16T04:56:33;115.03;;;43.73;;
58101;SDS011;52034;51.926;6.320;2023-04-16T04:57:34;117.97;;;43.60;;
58101;SDS011;52034;51.926;6.320;2023-04-16T04:58:35;139.77;;;48.38;;
58101;SDS011;52034;51.926;6.320;2023-04-16T04:59:36;103.60;;;41.63;;
58101;SDS011;52034;51.926;6.320;2023-04-16T05:00:36;121.57;;;46.13;;
58101;SDS011;52034;51.926;6.320;2023-04-16T05:01:36;100.73;;;41.30;;
58101;SDS011;52034;51.926;6.320;2023-04-16T05:02:37;101.10;;;41.60;;
58101;SDS011;52034;51.926;6.320;2023-04-16T05:03:37;99.97;;;41.70;;
58101;SDS011;52034;51.926;6.320;2023-04-16T05:04:37;94.97;;;40.23;;
58101;SDS011;52034;51.926;6.320;2023-04-16T05:05:38;101.37;;;42.43;;
58101;SDS011;52034;51.926;6.320;2023-04-16T05:06:39;106.43;;;41.10;;
58101;SDS011;52034;51.926;6.320;2023-04-16T05:07:40;104.57;;;42.70;;
58101;SDS011;52034;51.926;6.320;2023-04-16T05:08:40;116.13;;;46.03;;
58101;SDS011;52034;51.926;6.320;2023-04-16T05:09:41;94.87;;;40.17;;
58101;SDS011;52034;51.926;6.320;2023-04-16T05:10:41;91.97;;;39.20;;
58101;SDS011;52034;51.926;6.320;2023-04-16T05:11:41;91.93;;;40.23;;
58101;SDS011;52034;51.926;6.320;2023-04-16T05:12:41;97.23;;;40.57;;
58101;SDS011;52034;51.926;6.320;2023-04-16T05:13:42;101.90;;;42.87;;
58101;SDS011;52034;51.926;6.320;2023-04-16T05:14:42;99.60;;;40.67;;
58101;SDS011;52034;51.926;6.320;2023-04-16T05:15:42;102.43;;;42.60;;
58101;SDS011;52034;51.926;6.320;2023-04-16T05:16:44;101.03;;;43.20;;
58101;SDS011;52034;51.926;6.320;2023-04-16T05:17:45;98.33;;;41.47;;
58101;SDS011;52034;51.926;6.320;2023-04-16T05:18:45;90.03;;;38.90;;
58101;SDS011;52034;51.926;6.320;2023-04-16T05:19:45;102.10;;;43.40;;
58101;SDS011;52034;51.926;6.320;2023-04-16T05:20:46;96.17;;;40.80;;
58101;SDS011;52034;51.926;6.320;2023-04-16T05:21:46;83.90;;;39.73;;
58101;SDS011;52034;51.926;6.320;2023-04-16T05:22:46;107.00;;;44.27;;
58101;SDS011;52034;51.926;6.320;2023-04-16T05:23:46;95.80;;;41.50;;
58101;SDS011;52034;51.926;6.320;2023-04-16T05:24:47;81.80;;;39.10;;
58101;SDS011;52034;51.926;6.320;2023-04-16T05:25:47;91.80;;;40.37;;
58101;SDS011;52034;51.926;6.320;2023-04-16T05:26:47;87.90;;;39.03;;
58101;SDS011;52034;51.926;6.320;2023-04-16T05:27:48;87.50;;;40.60;;
58101;SDS011;52034;51.926;6.320;2023-04-16T05:28:48;85.50;;;40.33;;
58101;SDS011;52034;51.926;6.320;2023-04-16T05:29:48;100.73;;;42.63;;
58101;SDS011;52034;51.926;6.320;2023-04-16T05:30:49;81.40;;;38.27;;
58101;SDS011;52034;51.926;6.320;2023-04-16T05:31:49;91.30;;;39.97;;
58101;SDS011;52034;51.926;6.320;2023-04-16T05:32:50;86.07;;;38.83;;
58101;SDS011;52034;51.926;6.320;2023-04-16T05:33:50;73.83;;;35.73;;
58101;SDS011;52034;51.926;6.320;2023-04-16T05:34:50;91.00;;;41.17;;
58101;SDS011;52034;51.926;6.320;2023-04-16T05:35:51;93.83;;;40.53;;
58101;SDS011;52034;51.926;6.320;2023-04-16T05:36:51;75.77;;;37.83;;
58101;SDS011;52034;51.926;6.320;2023-04-16T05:37:51;80.67;;;38.10;;
58101;SDS011;52034;51.926;6.320;2023-04-16T05:38:52;89.10;;;39.43;;
58101;SDS011;52034;51.926;6.320;2023-04-16T05:39:52;77.43;;;38.30;;
58101;SDS011;52034;51.926;6.320;2023-04-16T05:40:52;79.43;;;38.37;;
58101;SDS011;52034;51.926;6.320;2023-04-16T05:41:52;88.00;;;39.47;;
58101;SDS011;52034;51.926;6.320;2023-04-16T05:42:53;79.50;;;40.10;;
58101;SDS011;52034;51.926;6.320;2023-04-16T05:43:53;78.70;;;37.50;;
58101;SDS011;52034;51.926;6.320;2023-04-16T05:44:53;78.37;;;36.83;;
58101;SDS011;52034;51.926;6.320;2023-04-16T05:45:54;92.57;;;41.67;;
58101;SDS011;52034;51.926;6.320;2023-04-16T05:46:54;89.17;;;40.23;;
58101;SDS011;52034;51.926;6.320;2023-04-16T05:47:55;105.67;;;43.67;;
58101;SDS011;52034;51.926;6.320;2023-04-16T05:48:55;90.80;;;40.40;;
58101;SDS011;52034;51.926;6.320;2023-04-16T05:49:55;97.30;;;41.30;;
58101;SDS011;52034;51.926;6.320;2023-04-16T05:50:55;103.13;;;43.23;;
58101;SDS011;52034;51.926;6.320;2023-04-16T05:51:56;89.23;;;41.63;;
58101;SDS011;52034;51.926;6.320;2023-04-16T05:52:56;90.00;;;41.10;;
58101;SDS011;52034;51.926;6.320;2023-04-16T05:53:56;98.20;;;43.53;;
58101;SDS011;52034;51.926;6.320;2023-04-16T05:54:57;94.23;;;42.53;;
58101;SDS011;52034;51.926;6.320;2023-04-16T05:56:00;86.72;;;39.20;;
58101;SDS011;52034;51.926;6.320;2023-04-16T05:57:00;108.27;;;46.53;;
58101;SDS011;52034;51.926;6.320;2023-04-16T05:58:01;92.97;;;40.67;;
58101;SDS011;52034;51.926;6.320;2023-04-16T05:59:03;102.72;;;44.53;;
58101;SDS011;52034;51.926;6.320;2023-04-16T06:00:03;94.23;;;43.13;;
58101;SDS011;52034;51.926;6.320;2023-04-16T06:01:12;104.40;;;43.95;;